Bodega Marine Reserve, California Weather observations

Data are for 10 minute period ending at time listed.
 Day   Time   Solar   Ave.   Ave.  Ave.  Vector  Max.   Baro.   Total    
  of    of     Rad.   Air    Rel.  Wind   Wind   Wind  Press.  Precip.   
Year   Day            Temp.  Hum.  Speed  Dir.   Gust                    
2015   (PST)  Kw/m2    F      %     mph   deg.    mph    mb.     in.     
-------------------------------------------------------------------------
 122   12:10   0.63   56.4    80    5.2   221     8.7   1010.5    0.00 
 122   12:20   0.57   55.7    80    5.5   219     8.8   1010.5    0.00 
 122   12:30   0.55   55.5    81    4.9   218     7.8   1010.2    0.00 
 122   12:40   0.51   55.6    81    4.6   226     8.2   1010.2    0.00 
 122   12:50   0.48   55.3    81    4.9   220     8.8   1010.2    0.00 
 122   13:00   0.50   55.4    81    5.6   220     8.8   1010.5    0.00 
 122   13:10   0.46   55.4    82    4.9   228     8.0   1010.5    0.00 
 122   13:20   0.45   55.4    82    5.0   227     7.2   1010.5    0.00 
 122   13:30   0.39   55.4    83    4.7   242     7.8   1010.5    0.00 
 122   13:40   0.39   54.9    83    4.2   245     7.3   1010.2    0.00 
 122   13:50   0.36   54.5    84    4.5   240     7.2   1010.2    0.00 
 122   14:00   0.36   54.6    85    4.9   254     8.3   1010.2    0.00 
 122   14:10   0.37   54.8    85    4.8   251     7.1   1010.2    0.00 
 122   14:20   0.37   54.7    85    5.4   275     7.6   1009.8    0.00 
 122   14:30   0.33   54.2    85    4.5   286     6.6   1009.8    0.00 
 122   14:40   0.30   54.4    85    4.1   282     6.3   1009.8    0.00 
 122   14:50   0.30   54.1    85    4.9   293     6.6   1009.8    0.00 
 122   15:00   0.27   53.7    85    5.1   286     8.0   1009.5    0.00 
 122   15:10   0.28   53.9    85    5.0   290     7.2   1009.5    0.00 
 122   15:20   0.27   54.2    85    4.4   278     7.7   1009.5    0.00 
 122   15:30   0.26   54.4    85    4.2   268     6.9   1009.1    0.00 
 122   15:40   0.22   54.4    84    4.2   250     7.2   1009.1    0.00 
 122   15:50   0.19   53.9    84    4.1   240     6.6   1009.1    0.00 
 122   16:00   0.18   53.6    85    4.7   240     6.7   1009.1    0.00 
 122   16:10   0.16   53.5    85    4.6   250     6.9   1009.1    0.00 
 122   16:20   0.15   53.6    85    4.1   232     6.6   1008.8    0.00 
 122   16:30   0.13   53.6    85    3.8   254     6.9   1008.8    0.00 
 122   16:40   0.12   53.5    85    5.1   262     7.1   1008.8    0.00 
 122   16:50   0.12   53.4    84    5.2   259     8.5   1008.8    0.00 
 122   17:00   0.10   53.1    84    4.6   261     6.7   1008.8    0.00 
 122   17:10   0.08   53.1    85    4.7   278     7.6   1008.8    0.00 
 122   17:20   0.07   53.0    85    5.5   264     7.9   1008.8    0.00 
 122   17:30   0.07   52.9    85    5.5   266     8.6   1008.8    0.00 
 122   17:40   0.06   52.6    85    5.7   281     8.5   1008.5    0.00 
 122   17:50   0.05   52.4    86    6.0   273     8.8   1008.5    0.00 
 122   18:00   0.04   52.2    86    5.3   278     9.7   1008.5    0.00 
 122   18:10   0.04   51.9    86    5.8   269    10.2   1008.5    0.00 
 122   18:20   0.03   51.8    86    6.0   284     9.4   1008.5    0.00 
 122   18:30   0.01   51.5    87    5.0   280     7.4   1008.5    0.00 
 122   18:40   0.01   51.4    88    4.1   291     7.4   1008.1    0.00 
 122   18:50   0.01   51.2    88    4.6   267     8.4   1008.1    0.00 
 122   19:00   0.00   51.1    88    5.3   277     8.0   1008.1    0.00 
 122   19:10   0.00   51.0    88    4.3   285     7.0   1008.1    0.00 
 122   19:20   0.00   51.0    89    4.4   281     7.6   1008.5    0.00 
 122   19:30   0.00   50.9    89    4.5   282     7.0   1008.5    0.00 
 122   19:40   0.00   50.7    89    5.3   283     8.9   1008.5    0.00 
 122   19:50   0.00   50.6    89    2.8   266     5.5   1008.8    0.00 
 122   20:00   0.00   50.6    89    4.4   272     8.8   1008.8    0.00 
 122   20:10   0.00   50.6    89    3.6   274     5.6   1008.8    0.00 
 122   20:20   0.00   50.6    89    4.6   266     6.8   1008.8    0.00 
 122   20:30   0.00   50.6    90    2.5   266     4.7   1009.1    0.00 
 122   20:40   0.00   50.6    90    3.8   256     5.6   1009.1    0.00 
 122   20:50   0.00   50.4    90    4.1   243     6.4   1009.1    0.00 
 122   21:00   0.00   50.4    90    1.4   208     3.6   1009.1    0.00 
 122   21:10   0.00   50.4    90    2.0   280     3.9   1009.1    0.00 
 122   21:20   0.00   50.3    90    2.0   277     4.9   1009.5    0.00 
 122   21:30   0.00   50.3    90    2.3   282     5.3   1009.5    0.00 
 122   21:40   0.00   50.4    90    0.8   290     3.3   1009.5    0.00 
 122   21:50   0.00   50.5    90    2.7   257     5.8   1009.5    0.00 
 122   22:00   0.00   50.5    91    3.8   211     6.1   1009.5    0.00 
 122   22:10   0.00   50.4    91    3.2   223     5.4   1009.5    0.00 
 122   22:20   0.00   50.2    91    2.7   193     5.9   1009.5    0.00 
 122   22:30   0.00   50.1    91    3.2   233     5.7   1009.5    0.00 
 122   22:40   0.00   50.1    91    3.6   244     5.6   1009.5    0.00 
 122   22:50   0.00   50.1    91    2.2   261     3.9   1009.5    0.00 
 122   23:00   0.00   50.1    91    1.4   238     3.7   1009.5    0.00 
 122   23:10   0.00   50.0    92    2.9   231     4.3   1009.5    0.00 
 122   23:20   0.00   50.0    92    3.7   204     6.2   1009.5    0.00 
 122   23:30   0.00   49.9    92    2.7   204     4.3   1009.5    0.00 
 122   23:40   0.00   49.8    92    2.4   214     4.7   1009.5    0.00 
 122   23:50   0.00   49.8    92    2.8   236     4.6   1009.1    0.00 
 123    0:00   0.00   49.8    92    2.5   232     3.7   1009.1    0.00 
 123    0:10   0.00   49.7    92    2.7   211     4.8   1009.1    0.00 
 123    0:20   0.00   49.7    92    1.9   211     3.4   1009.1    0.00 
 123    0:30   0.00   49.8    92    1.5   204     3.9   1009.1    0.00 
 123    0:40   0.00   49.7    92    2.2   233     3.7   1009.1    0.00 
 123    0:50   0.00   49.6    93    2.2   261     2.9   1009.1    0.00 
 123    1:00   0.00   49.6    93    0.7   274     2.0   1008.8    0.00 
 123    1:10   0.00   49.6    93    1.1   190     3.0   1008.8    0.00 
 123    1:20   0.00   49.5    93    2.2   151     3.7   1008.8    0.00 
 123    1:30   0.00   49.5    93    2.2   196     3.7   1008.8    0.00 
 123    1:40   0.00   49.5    93    2.7   205     5.0   1008.5    0.00 
 123    1:50   0.00   49.3    93    2.3   169     5.2   1008.5    0.00 
 123    2:00   0.00   49.3    93    3.1   190     5.1   1008.5    0.00 
 123    2:10   0.00   49.3    93    1.7   165     2.9   1008.1    0.00 
 123    2:20   0.00   49.4    93    4.3   152     7.2   1008.1    0.00 
 123    2:30   0.00   49.2    93    4.1   151     7.1   1008.1    0.00 
 123    2:40   0.00   49.0    93    3.6   172     7.1   1008.1    0.00 
 123    2:50   0.00   49.0    94    3.4   189     5.6   1008.1    0.00 
 123    3:00   0.00   48.9    94    4.8   192     7.0   1008.1    0.00 
 123    3:10   0.00   48.8    94    3.4   194     5.4   1008.1    0.00 
 123    3:20   0.00   48.7    94    5.3   173     8.7   1008.1    0.00 
 123    3:30   0.00   48.7    94    3.7   160     7.2   1008.1    0.00 
 123    3:40   0.00   48.7    94    5.8   151     9.3   1008.1    0.00 
 123    3:50   0.00   48.7    94    4.6   150     7.0   1008.1    0.00 
 123    4:00   0.00   48.7    94    3.5   174     5.9   1008.1    0.00 
 123    4:10   0.00   48.6    94    3.5   180     5.8   1008.1    0.00 
 123    4:20   0.00   48.7    94    3.3   169     8.3   1007.8    0.00 
 123    4:30   0.00   48.6    94    4.7   126     8.8   1007.8    0.00 
 123    4:40   0.00   48.6    94    4.1   125     7.9   1007.8    0.00 
 123    4:50   0.00   48.4    94    3.6   140     7.2   1008.1    0.00 
 123    5:00   0.00   48.5    94    3.2   125     5.8   1007.8    0.01 
 123    5:10   0.00   48.7    94    5.7   137     7.9   1007.8    0.00 
 123    5:20   0.00   48.7    94    4.2   119     7.3   1007.8    0.00 
 123    5:30   0.00   48.7    94    3.7   126     5.5   1008.1    0.00 
 123    5:40   0.01   48.9    94    3.1   114     6.9   1008.1    0.00 
 123    5:50   0.01   49.1    94    4.9   128     7.9   1008.1    0.00 
 123    6:00   0.01   49.2    94    5.8   138     9.9   1008.5    0.00 
 123    6:10   0.02   49.2    94    5.9   131     8.3   1008.5    0.00 
 123    6:20   0.03   49.4    94    5.4   129     8.6   1008.5    0.00 
 123    6:30   0.03   49.5    94    5.6   129     8.5   1008.5    0.00 
 123    6:40   0.04   49.6    94    5.4   124     9.6   1008.5    0.00 
 123    6:50   0.04   49.7    94    6.4   129     9.6   1008.8    0.00 
 123    7:00   0.05   49.9    94    6.5   132     9.5   1008.8    0.00 
 123    7:10   0.06   50.0    94    6.9   136     9.7   1008.8    0.00 
 123    7:20   0.07   50.0    94    6.9   132    10.1   1009.1    0.00 
 123    7:30   0.07   50.1    94    6.1   134     8.3   1009.1    0.00 
 123    7:40   0.07   50.1    94    4.5   123     6.9   1009.1    0.00 
 123    7:50   0.07   50.2    94    5.0   127     7.9   1009.1    0.00 
 123    8:00   0.10   50.2    94    6.6   130     8.9   1009.5    0.00 
 123    8:10   0.10   50.4    94    6.3   130     8.7   1009.5    0.00 
 123    8:20   0.11   50.5    94    4.8   126     7.5   1009.5    0.00 
 123    8:30   0.10   50.5    94    3.9   133     5.7   1009.5    0.00 
 123    8:40   0.12   50.8    94    5.6   146     7.7   1009.5    0.00 
 123    8:50   0.15   51.0    94    4.0   148     6.6   1009.8    0.00 
 123    9:00   0.14   51.1    93    5.4   140     7.5   1009.8    0.00 
 123    9:10   0.15   51.2    93    4.8   148     7.7   1009.8    0.00 
 123    9:20   0.16   51.5    93    4.6   152     6.4   1009.8    0.00 
 123    9:30   0.17   51.4    93    5.6   158     8.2   1010.2    0.00 
 123    9:40   0.20   51.6    93    4.1   161     7.2   1010.2    0.00 
 123    9:50   0.21   51.8    92    4.7   174     7.5   1010.5    0.00 
 123   10:00   0.23   51.8    92    5.0   177     7.5   1010.5    0.00 
 123   10:10   0.20   51.8    92    3.8   170     6.9   1010.5    0.00 
 123   10:20   0.21   52.1    91    4.3   174     7.5   1010.5    0.00 
 123   10:30   0.23   52.0    91    4.0   196     7.0   1010.5    0.00 
 123   10:40   0.26   52.1    91    4.1   196     6.3   1010.8    0.00 
 123   10:50   0.25   52.2    91    3.9   166     7.0   1010.8    0.00 
 123   11:00   0.24   52.4    90    5.0   156     7.6   1010.8    0.00 
 123   11:10   0.22   52.0    90    5.2   138     7.1   1010.8    0.00 
 123   11:20   0.26   52.3    90    4.1   151     6.4   1010.8    0.00 
 123   11:30   0.27   52.7    89    4.7   159     8.8   1010.8    0.00 
 123   11:40   0.30   52.7    88    5.0   175     7.7   1010.8    0.00 
 123   11:50   0.33   52.8    87    5.4   163     8.0   1010.8    0.00 
 123   12:00   0.31   53.0    86    5.0   166     8.3   1010.8    0.00 

Return to Bodega Marine Reserve graphs page.


Western Regional Climate Center,wrcc@dri.edu